sensor_id;sensor_type;location;lat;lon;timestamp;temperature;humidity
4406;DHT22;2216;53.806;11.598;2023-02-15T00:01:51;2.20;80.20
4406;DHT22;2216;53.806;11.598;2023-02-15T00:04:19;2.10;79.50
4406;DHT22;2216;53.806;11.598;2023-02-15T00:06:47;2.10;79.50
4406;DHT22;2216;53.806;11.598;2023-02-15T00:09:13;2.10;79.50
4406;DHT22;2216;53.806;11.598;2023-02-15T00:11:39;2.10;79.50
4406;DHT22;2216;53.806;11.598;2023-02-15T00:14:17;2.00;79.40
4406;DHT22;2216;53.806;11.598;2023-02-15T00:16:47;2.10;79.50
4406;DHT22;2216;53.806;11.598;2023-02-15T00:19:16;2.10;79.50
4406;DHT22;2216;53.806;11.598;2023-02-15T00:21:42;2.10;79.50
4406;DHT22;2216;53.806;11.598;2023-02-15T00:24:11;2.10;79.50
4406;DHT22;2216;53.806;11.598;2023-02-15T00:26:39;2.10;79.50
4406;DHT22;2216;53.806;11.598;2023-02-15T00:29:06;2.00;79.40
4406;DHT22;2216;53.806;11.598;2023-02-15T00:31:33;2.00;79.40
4406;DHT22;2216;53.806;11.598;2023-02-15T00:34:05;2.00;79.30
4406;DHT22;2216;53.806;11.598;2023-02-15T00:36:33;2.00;79.30
4406;DHT22;2216;53.806;11.598;2023-02-15T00:38:58;1.90;79.20
4406;DHT22;2216;53.806;11.598;2023-02-15T00:41:24;1.90;79.20
4406;DHT22;2216;53.806;11.598;2023-02-15T00:43:50;1.90;79.20
4406;DHT22;2216;53.806;11.598;2023-02-15T00:46:16;1.90;79.20
4406;DHT22;2216;53.806;11.598;2023-02-15T00:48:41;1.90;79.20
4406;DHT22;2216;53.806;11.598;2023-02-15T00:51:07;1.90;79.20
4406;DHT22;2216;53.806;11.598;2023-02-15T00:53:33;1.80;79.10
4406;DHT22;2216;53.806;11.598;2023-02-15T00:55:58;1.70;79.10
4406;DHT22;2216;53.806;11.598;2023-02-15T00:58:25;1.80;79.20
4406;DHT22;2216;53.806;11.598;2023-02-15T01:00:51;1.70;79.10
4406;DHT22;2216;53.806;11.598;2023-02-15T01:03:18;1.70;79.20
4406;DHT22;2216;53.806;11.598;2023-02-15T01:05:46;1.70;79.20
4406;DHT22;2216;53.806;11.598;2023-02-15T01:08:12;1.70;79.20
4406;DHT22;2216;53.806;11.598;2023-02-15T01:10:38;1.60;79.20
4406;DHT22;2216;53.806;11.598;2023-02-15T01:13:04;1.60;79.20
4406;DHT22;2216;53.806;11.598;2023-02-15T01:15:30;1.60;79.20
4406;DHT22;2216;53.806;11.598;2023-02-15T01:17:56;1.60;79.20
4406;DHT22;2216;53.806;11.598;2023-02-15T01:20:25;1.60;79.20
4406;DHT22;2216;53.806;11.598;2023-02-15T01:22:53;1.50;79.20
4406;DHT22;2216;53.806;11.598;2023-02-15T01:25:21;1.60;79.30
4406;DHT22;2216;53.806;11.598;2023-02-15T01:27:48;1.50;79.20
4406;DHT22;2216;53.806;11.598;2023-02-15T01:30:14;1.50;79.20
4406;DHT22;2216;53.806;11.598;2023-02-15T01:32:41;1.50;79.10
4406;DHT22;2216;53.806;11.598;2023-02-15T01:35:08;1.40;79.00
4406;DHT22;2216;53.806;11.598;2023-02-15T01:37:34;1.50;79.10
4406;DHT22;2216;53.806;11.598;2023-02-15T01:40:02;1.40;79.00
4406;DHT22;2216;53.806;11.598;2023-02-15T01:42:30;1.40;79.00
4406;DHT22;2216;53.806;11.598;2023-02-15T01:45:02;1.40;79.00
4406;DHT22;2216;53.806;11.598;2023-02-15T01:52:55;1.30;79.00
4406;DHT22;2216;53.806;11.598;2023-02-15T01:55:42;1.30;79.00
4406;DHT22;2216;53.806;11.598;2023-02-15T01:58:10;1.20;79.00
4406;DHT22;2216;53.806;11.598;2023-02-15T02:00:36;1.20;79.00
4406;DHT22;2216;53.806;11.598;2023-02-15T02:03:03;1.20;79.00
4406;DHT22;2216;53.806;11.598;2023-02-15T02:05:29;1.20;79.10
4406;DHT22;2216;53.806;11.598;2023-02-15T02:07:58;1.20;79.10
4406;DHT22;2216;53.806;11.598;2023-02-15T02:10:25;1.10;79.00
4406;DHT22;2216;53.806;11.598;2023-02-15T02:12:54;1.10;79.10
4406;DHT22;2216;53.806;11.598;2023-02-15T02:15:40;1.10;79.10
4406;DHT22;2216;53.806;11.598;2023-02-15T02:18:27;1.10;79.10
4406;DHT22;2216;53.806;11.598;2023-02-15T02:21:27;1.10;79.20
4406;DHT22;2216;53.806;11.598;2023-02-15T02:36:08;1.00;79.40
4406;DHT22;2216;53.806;11.598;2023-02-15T02:39:11;1.00;79.40
4406;DHT22;2216;53.806;11.598;2023-02-15T02:42:12;1.00;79.40
4406;DHT22;2216;53.806;11.598;2023-02-15T02:44:49;1.00;79.40
4406;DHT22;2216;53.806;11.598;2023-02-15T02:47:27;1.00;79.40
4406;DHT22;2216;53.806;11.598;2023-02-15T02:50:01;1.00;79.40
4406;DHT22;2216;53.806;11.598;2023-02-15T02:55:36;1.00;79.50
4406;DHT22;2216;53.806;11.598;2023-02-15T02:58:19;1.20;79.60
4406;DHT22;2216;53.806;11.598;2023-02-15T03:00:55;1.00;79.50
4406;DHT22;2216;53.806;11.598;2023-02-15T03:03:34;1.00;79.40
4406;DHT22;2216;53.806;11.598;2023-02-15T03:06:06;1.00;79.50
4406;DHT22;2216;53.806;11.598;2023-02-15T03:08:48;1.00;79.50
4406;DHT22;2216;53.806;11.598;2023-02-15T03:11:16;1.00;79.50
4406;DHT22;2216;53.806;11.598;2023-02-15T03:13:44;1.00;79.50
4406;DHT22;2216;53.806;11.598;2023-02-15T03:16:10;1.00;79.50
4406;DHT22;2216;53.806;11.598;2023-02-15T03:19:02;1.00;79.50
4406;DHT22;2216;53.806;11.598;2023-02-15T03:21:41;1.00;79.40
4406;DHT22;2216;53.806;11.598;2023-02-15T03:24:25;1.00;79.40
4406;DHT22;2216;53.806;11.598;2023-02-15T03:26:54;1.00;79.50
4406;DHT22;2216;53.806;11.598;2023-02-15T03:29:24;1.00;79.40
4406;DHT22;2216;53.806;11.598;2023-02-15T03:31:56;1.00;79.50
4406;DHT22;2216;53.806;11.598;2023-02-15T03:34:26;1.00;79.50
4406;DHT22;2216;53.806;11.598;2023-02-15T03:42:31;1.00;79.50
4406;DHT22;2216;53.806;11.598;2023-02-15T03:45:03;1.00;79.50
4406;DHT22;2216;53.806;11.598;2023-02-15T03:47:35;1.00;79.40
4406;DHT22;2216;53.806;11.598;2023-02-15T03:50:18;1.00;79.40
4406;DHT22;2216;53.806;11.598;2023-02-15T03:53:09;1.00;79.40
4406;DHT22;2216;53.806;11.598;2023-02-15T03:55:37;1.00;79.50
4406;DHT22;2216;53.806;11.598;2023-02-15T03:58:03;0.90;79.40
4406;DHT22;2216;53.806;11.598;2023-02-15T04:00:58;1.00;79.50
4406;DHT22;2216;53.806;11.598;2023-02-15T04:03:51;0.90;79.50
4406;DHT22;2216;53.806;11.598;2023-02-15T04:06:22;0.90;79.50
4406;DHT22;2216;53.806;11.598;2023-02-15T04:08:47;0.90;79.50
4406;DHT22;2216;53.806;11.598;2023-02-15T04:11:31;0.90;79.50
4406;DHT22;2216;53.806;11.598;2023-02-15T04:13:57;0.90;79.60
4406;DHT22;2216;53.806;11.598;2023-02-15T04:16:25;0.90;79.50
4406;DHT22;2216;53.806;11.598;2023-02-15T04:18:51;0.90;79.50
4406;DHT22;2216;53.806;11.598;2023-02-15T04:21:35;0.90;79.50
4406;DHT22;2216;53.806;11.598;2023-02-15T04:24:20;0.90;79.50
4406;DHT22;2216;53.806;11.598;2023-02-15T04:27:04;0.90;79.50
4406;DHT22;2216;53.806;11.598;2023-02-15T04:29:31;0.90;79.50
4406;DHT22;2216;53.806;11.598;2023-02-15T04:31:59;0.90;79.50
4406;DHT22;2216;53.806;11.598;2023-02-15T04:34:25;0.90;79.50
4406;DHT22;2216;53.806;11.598;2023-02-15T04:36:51;0.90;79.40
4406;DHT22;2216;53.806;11.598;2023-02-15T04:39:18;0.80;79.40
4406;DHT22;2216;53.806;11.598;2023-02-15T04:41:45;0.90;79.40
4406;DHT22;2216;53.806;11.598;2023-02-15T04:44:10;0.80;79.40
4406;DHT22;2216;53.806;11.598;2023-02-15T04:46:36;0.90;79.50
4406;DHT22;2216;53.806;11.598;2023-02-15T04:49:02;0.80;79.40
4406;DHT22;2216;53.806;11.598;2023-02-15T04:51:28;0.80;79.40
4406;DHT22;2216;53.806;11.598;2023-02-15T04:53:54;0.80;79.40
4406;DHT22;2216;53.806;11.598;2023-02-15T04:56:21;0.80;79.50
4406;DHT22;2216;53.806;11.598;2023-02-15T04:58:47;0.80;79.40
4406;DHT22;2216;53.806;11.598;2023-02-15T05:01:13;0.80;79.40
4406;DHT22;2216;53.806;11.598;2023-02-15T05:03:39;0.80;79.50
4406;DHT22;2216;53.806;11.598;2023-02-15T05:06:05;0.80;79.50
4406;DHT22;2216;53.806;11.598;2023-02-15T05:08:31;0.80;79.50
4406;DHT22;2216;53.806;11.598;2023-02-15T05:10:57;0.70;79.50
4406;DHT22;2216;53.806;11.598;2023-02-15T05:13:23;0.80;79.60
4406;DHT22;2216;53.806;11.598;2023-02-15T05:15:50;0.70;79.50
4406;DHT22;2216;53.806;11.598;2023-02-15T05:18:18;0.70;79.60
4406;DHT22;2216;53.806;11.598;2023-02-15T05:20:45;0.70;79.50
4406;DHT22;2216;53.806;11.598;2023-02-15T05:23:11;0.60;79.50
4406;DHT22;2216;53.806;11.598;2023-02-15T05:25:37;0.80;79.60
4406;DHT22;2216;53.806;11.598;2023-02-15T05:28:22;0.70;79.60
4406;DHT22;2216;53.806;11.598;2023-02-15T05:30:51;0.70;79.60
4406;DHT22;2216;53.806;11.598;2023-02-15T05:33:35;0.80;79.70
4406;DHT22;2216;53.806;11.598;2023-02-15T05:36:01;0.70;79.60
4406;DHT22;2216;53.806;11.598;2023-02-15T05:38:28;0.90;79.70
4406;DHT22;2216;53.806;11.598;2023-02-15T05:40:53;0.70;79.60
4406;DHT22;2216;53.806;11.598;2023-02-15T05:43:20;0.70;80.30
4406;DHT22;2216;53.806;11.598;2023-02-15T05:45:47;0.70;79.60
4406;DHT22;2216;53.806;11.598;2023-02-15T05:48:17;0.70;79.60
4406;DHT22;2216;53.806;11.598;2023-02-15T05:50:44;0.70;79.60
4406;DHT22;2216;53.806;11.598;2023-02-15T05:53:10;0.70;79.60
4406;DHT22;2216;53.806;11.598;2023-02-15T05:55:39;0.70;79.70
4406;DHT22;2216;53.806;11.598;2023-02-15T05:58:06;0.70;79.60
4406;DHT22;2216;53.806;11.598;2023-02-15T06:00:33;0.70;79.50
4406;DHT22;2216;53.806;11.598;2023-02-15T06:02:59;0.70;79.60
4406;DHT22;2216;53.806;11.598;2023-02-15T06:05:25;0.70;79.50
4406;DHT22;2216;53.806;11.598;2023-02-15T06:07:51;0.70;79.60
4406;DHT22;2216;53.806;11.598;2023-02-15T06:10:16;0.60;79.50
4406;DHT22;2216;53.806;11.598;2023-02-15T06:12:43;0.70;79.60
4406;DHT22;2216;53.806;11.598;2023-02-15T06:15:09;0.60;79.60
4406;DHT22;2216;53.806;11.598;2023-02-15T06:17:35;0.60;79.50
4406;DHT22;2216;53.806;11.598;2023-02-15T06:20:01;0.60;79.40
4406;DHT22;2216;53.806;11.598;2023-02-15T06:22:26;0.60;79.40
4406;DHT22;2216;53.806;11.598;2023-02-15T06:24:52;0.60;79.50
4406;DHT22;2216;53.806;11.598;2023-02-15T06:27:18;0.60;79.50
4406;DHT22;2216;53.806;11.598;2023-02-15T06:29:43;0.60;79.50
4406;DHT22;2216;53.806;11.598;2023-02-15T06:32:09;0.60;79.50
4406;DHT22;2216;53.806;11.598;2023-02-15T06:34:35;0.60;79.50
4406;DHT22;2216;53.806;11.598;2023-02-15T06:37:00;0.60;79.60
4406;DHT22;2216;53.806;11.598;2023-02-15T06:39:26;0.60;79.60
4406;DHT22;2216;53.806;11.598;2023-02-15T06:41:52;0.60;79.70
4406;DHT22;2216;53.806;11.598;2023-02-15T06:44:18;0.60;79.70
4406;DHT22;2216;53.806;11.598;2023-02-15T06:46:43;0.60;79.60
4406;DHT22;2216;53.806;11.598;2023-02-15T06:49:09;0.60;79.60
4406;DHT22;2216;53.806;11.598;2023-02-15T06:51:35;0.60;79.60
4406;DHT22;2216;53.806;11.598;2023-02-15T06:54:00;0.60;79.60
4406;DHT22;2216;53.806;11.598;2023-02-15T06:56:26;0.60;79.60
4406;DHT22;2216;53.806;11.598;2023-02-15T06:58:51;0.60;79.60
4406;DHT22;2216;53.806;11.598;2023-02-15T07:01:18;0.60;80.00
4406;DHT22;2216;53.806;11.598;2023-02-15T07:03:44;0.60;79.70
4406;DHT22;2216;53.806;11.598;2023-02-15T07:06:10;0.70;79.90
4406;DHT22;2216;53.806;11.598;2023-02-15T07:08:37;0.60;79.90
4406;DHT22;2216;53.806;11.598;2023-02-15T07:11:05;0.70;80.00
4406;DHT22;2216;53.806;11.598;2023-02-15T07:13:49;0.70;80.00
4406;DHT22;2216;53.806;11.598;2023-02-15T07:16:15;0.70;80.10
4406;DHT22;2216;53.806;11.598;2023-02-15T07:18:41;0.70;80.10
4406;DHT22;2216;53.806;11.598;2023-02-15T07:21:07;0.80;80.20
4406;DHT22;2216;53.806;11.598;2023-02-15T07:23:35;0.80;80.20
4406;DHT22;2216;53.806;11.598;2023-02-15T07:26:02;0.90;80.30
4406;DHT22;2216;53.806;11.598;2023-02-15T07:28:28;0.90;80.20
4406;DHT22;2216;53.806;11.598;2023-02-15T07:30:54;0.90;80.30
4406;DHT22;2216;53.806;11.598;2023-02-15T07:33:20;0.90;80.20
4406;DHT22;2216;53.806;11.598;2023-02-15T07:35:56;0.90;80.20
4406;DHT22;2216;53.806;11.598;2023-02-15T07:38:24;1.00;80.30
4406;DHT22;2216;53.806;11.598;2023-02-15T07:40:51;1.10;80.30
4406;DHT22;2216;53.806;11.598;2023-02-15T07:43:17;1.00;80.30
4406;DHT22;2216;53.806;11.598;2023-02-15T07:45:43;1.10;80.40
4406;DHT22;2216;53.806;11.598;2023-02-15T07:48:09;1.10;80.30
4406;DHT22;2216;53.806;11.598;2023-02-15T07:50:34;1.20;80.40
4406;DHT22;2216;53.806;11.598;2023-02-15T07:53:03;1.20;80.40
4406;DHT22;2216;53.806;11.598;2023-02-15T07:55:29;1.20;80.50
4406;DHT22;2216;53.806;11.598;2023-02-15T07:57:55;1.20;80.50
4406;DHT22;2216;53.806;11.598;2023-02-15T08:00:22;1.30;80.60
4406;DHT22;2216;53.806;11.598;2023-02-15T08:02:54;1.40;80.70
4406;DHT22;2216;53.806;11.598;2023-02-15T08:05:40;1.40;81.40
4406;DHT22;2216;53.806;11.598;2023-02-15T08:08:08;1.40;80.70
4406;DHT22;2216;53.806;11.598;2023-02-15T08:10:35;1.50;80.70
4406;DHT22;2216;53.806;11.598;2023-02-15T08:13:19;1.60;80.80
4406;DHT22;2216;53.806;11.598;2023-02-15T08:15:51;1.60;80.70
4406;DHT22;2216;53.806;11.598;2023-02-15T08:18:17;1.70;80.80
4406;DHT22;2216;53.806;11.598;2023-02-15T08:20:49;1.70;80.80
4406;DHT22;2216;53.806;11.598;2023-02-15T08:23:15;1.70;80.80
4406;DHT22;2216;53.806;11.598;2023-02-15T08:25:40;1.80;80.80
4406;DHT22;2216;53.806;11.598;2023-02-15T08:28:06;1.90;80.90
4406;DHT22;2216;53.806;11.598;2023-02-15T08:30:32;1.90;80.90
4406;DHT22;2216;53.806;11.598;2023-02-15T08:32:57;2.00;81.00
4406;DHT22;2216;53.806;11.598;2023-02-15T08:35:24;2.00;80.90
4406;DHT22;2216;53.806;11.598;2023-02-15T08:37:50;2.20;81.00
4406;DHT22;2216;53.806;11.598;2023-02-15T08:40:16;2.10;80.80
4406;DHT22;2216;53.806;11.598;2023-02-15T08:42:42;2.10;80.70
4406;DHT22;2216;53.806;11.598;2023-02-15T08:45:08;2.10;80.70
4406;DHT22;2216;53.806;11.598;2023-02-15T08:47:34;2.10;80.60
4406;DHT22;2216;53.806;11.598;2023-02-15T08:49:59;2.10;80.70
4406;DHT22;2216;53.806;11.598;2023-02-15T08:52:25;2.20;80.80
4406;DHT22;2216;53.806;11.598;2023-02-15T08:54:51;2.20;80.90
4406;DHT22;2216;53.806;11.598;2023-02-15T08:57:16;2.20;80.80
4406;DHT22;2216;53.806;11.598;2023-02-15T08:59:42;2.20;80.80
4406;DHT22;2216;53.806;11.598;2023-02-15T09:02:10;2.30;80.90
4406;DHT22;2216;53.806;11.598;2023-02-15T09:04:35;2.30;80.90
4406;DHT22;2216;53.806;11.598;2023-02-15T09:07:01;2.30;80.90
4406;DHT22;2216;53.806;11.598;2023-02-15T09:09:29;2.40;81.00
4406;DHT22;2216;53.806;11.598;2023-02-15T09:11:56;2.40;81.10
4406;DHT22;2216;53.806;11.598;2023-02-15T09:14:22;2.40;81.10
4406;DHT22;2216;53.806;11.598;2023-02-15T09:16:51;2.50;81.20
4406;DHT22;2216;53.806;11.598;2023-02-15T09:19:18;2.50;81.20
4406;DHT22;2216;53.806;11.598;2023-02-15T09:21:45;2.60;81.40
4406;DHT22;2216;53.806;11.598;2023-02-15T09:24:13;2.60;81.50
4406;DHT22;2216;53.806;11.598;2023-02-15T09:26:41;2.60;81.40
4406;DHT22;2216;53.806;11.598;2023-02-15T09:29:10;2.70;81.70
4406;DHT22;2216;53.806;11.598;2023-02-15T09:31:40;2.70;81.60
4406;DHT22;2216;53.806;11.598;2023-02-15T09:34:09;2.80;81.70
4406;DHT22;2216;53.806;11.598;2023-02-15T09:36:37;2.90;81.80
4406;DHT22;2216;53.806;11.598;2023-02-15T09:39:37;3.10;82.00
4406;DHT22;2216;53.806;11.598;2023-02-15T09:42:28;3.00;82.10
4406;DHT22;2216;53.806;11.598;2023-02-15T09:45:28;3.00;82.10
4406;DHT22;2216;53.806;11.598;2023-02-15T09:51:09;3.10;81.80
4406;DHT22;2216;53.806;11.598;2023-02-15T10:04:54;3.40;81.80
4406;DHT22;2216;53.806;11.598;2023-02-15T10:18:55;3.60;81.60
4406;DHT22;2216;53.806;11.598;2023-02-15T10:21:44;3.70;81.70
4406;DHT22;2216;53.806;11.598;2023-02-15T10:24:34;3.70;81.70
4406;DHT22;2216;53.806;11.598;2023-02-15T10:27:16;3.70;81.60
4406;DHT22;2216;53.806;11.598;2023-02-15T10:30:03;3.70;81.50
4406;DHT22;2216;53.806;11.598;2023-02-15T10:33:00;3.90;81.60
4406;DHT22;2216;53.806;11.598;2023-02-15T10:35:38;3.70;81.30
4406;DHT22;2216;53.806;11.598;2023-02-15T10:43:54;3.90;81.70
4406;DHT22;2216;53.806;11.598;2023-02-15T10:46:55;3.90;81.70
4406;DHT22;2216;53.806;11.598;2023-02-15T10:49:50;4.00;81.80
4406;DHT22;2216;53.806;11.598;2023-02-15T10:55:14;4.10;81.80
4406;DHT22;2216;53.806;11.598;2023-02-15T11:06:35;4.30;81.90
4406;DHT22;2216;53.806;11.598;2023-02-15T11:09:12;4.40;82.70
4406;DHT22;2216;53.806;11.598;2023-02-15T11:11:41;4.40;81.90
4406;DHT22;2216;53.806;11.598;2023-02-15T11:16:49;4.50;81.90
4406;DHT22;2216;53.806;11.598;2023-02-15T11:19:20;4.50;81.70
4406;DHT22;2216;53.806;11.598;2023-02-15T11:21:54;4.50;81.90
4406;DHT22;2216;53.806;11.598;2023-02-15T11:24:28;4.60;81.90
4406;DHT22;2216;53.806;11.598;2023-02-15T11:27:26;4.60;82.00
4406;DHT22;2216;53.806;11.598;2023-02-15T11:30:10;4.70;82.10
4406;DHT22;2216;53.806;11.598;2023-02-15T11:32:42;4.80;82.10
4406;DHT22;2216;53.806;11.598;2023-02-15T11:38:10;4.90;82.20
4406;DHT22;2216;53.806;11.598;2023-02-15T11:40:49;5.00;82.40
4406;DHT22;2216;53.806;11.598;2023-02-15T11:43:56;5.00;82.30
4406;DHT22;2216;53.806;11.598;2023-02-15T11:46:23;5.10;82.20
4406;DHT22;2216;53.806;11.598;2023-02-15T11:48:49;5.10;82.10
4406;DHT22;2216;53.806;11.598;2023-02-15T11:51:17;5.10;82.00
4406;DHT22;2216;53.806;11.598;2023-02-15T11:53:45;5.20;82.00
4406;DHT22;2216;53.806;11.598;2023-02-15T11:56:18;5.20;82.10
4406;DHT22;2216;53.806;11.598;2023-02-15T11:58:50;5.30;82.00
4406;DHT22;2216;53.806;11.598;2023-02-15T12:01:32;5.30;82.00
4406;DHT22;2216;53.806;11.598;2023-02-15T12:06:48;5.40;82.20
4406;DHT22;2216;53.806;11.598;2023-02-15T12:09:34;5.50;82.10
4406;DHT22;2216;53.806;11.598;2023-02-15T12:12:30;5.40;82.00
4406;DHT22;2216;53.806;11.598;2023-02-15T12:14:59;5.40;81.90
4406;DHT22;2216;53.806;11.598;2023-02-15T12:17:29;5.40;81.70
4406;DHT22;2216;53.806;11.598;2023-02-15T12:20:00;5.40;81.80
4406;DHT22;2216;53.806;11.598;2023-02-15T12:22:33;5.40;81.70
4406;DHT22;2216;53.806;11.598;2023-02-15T12:25:04;5.40;81.70
4406;DHT22;2216;53.806;11.598;2023-02-15T12:27:47;5.40;81.90
4406;DHT22;2216;53.806;11.598;2023-02-15T12:30:20;5.40;81.80
4406;DHT22;2216;53.806;11.598;2023-02-15T12:32:54;5.40;81.80
4406;DHT22;2216;53.806;11.598;2023-02-15T12:35:33;5.40;81.80
4406;DHT22;2216;53.806;11.598;2023-02-15T12:38:02;5.40;81.80
4406;DHT22;2216;53.806;11.598;2023-02-15T12:40:32;5.40;81.80
4406;DHT22;2216;53.806;11.598;2023-02-15T12:42:59;5.50;81.90
4406;DHT22;2216;53.806;11.598;2023-02-15T12:45:33;5.50;82.00
4406;DHT22;2216;53.806;11.598;2023-02-15T12:48:18;5.50;82.00
4406;DHT22;2216;53.806;11.598;2023-02-15T12:50:47;5.50;82.00
4406;DHT22;2216;53.806;11.598;2023-02-15T12:53:23;5.60;82.00
4406;DHT22;2216;53.806;11.598;2023-02-15T12:56:01;5.60;81.90
4406;DHT22;2216;53.806;11.598;2023-02-15T12:58:30;5.60;82.00
4406;DHT22;2216;53.806;11.598;2023-02-15T13:04:02;5.60;81.80
4406;DHT22;2216;53.806;11.598;2023-02-15T13:06:34;5.70;81.90
4406;DHT22;2216;53.806;11.598;2023-02-15T13:09:37;5.70;81.90
4406;DHT22;2216;53.806;11.598;2023-02-15T13:14:54;5.80;82.10
4406;DHT22;2216;53.806;11.598;2023-02-15T13:17:25;5.80;82.20
4406;DHT22;2216;53.806;11.598;2023-02-15T13:19:56;5.80;82.40
4406;DHT22;2216;53.806;11.598;2023-02-15T13:22:39;5.90;82.20
4406;DHT22;2216;53.806;11.598;2023-02-15T13:25:29;5.90;82.30
4406;DHT22;2216;53.806;11.598;2023-02-15T13:27:59;6.00;82.20
4406;DHT22;2216;53.806;11.598;2023-02-15T13:30:38;6.00;82.30
4406;DHT22;2216;53.806;11.598;2023-02-15T13:41:10;6.10;81.70
4406;DHT22;2216;53.806;11.598;2023-02-15T13:52:47;6.00;81.50
4406;DHT22;2216;53.806;11.598;2023-02-15T13:55:30;6.00;81.50
4406;DHT22;2216;53.806;11.598;2023-02-15T14:01:02;6.00;81.50
4406;DHT22;2216;53.806;11.598;2023-02-15T14:03:45;6.00;81.60
4406;DHT22;2216;53.806;11.598;2023-02-15T14:06:50;6.00;81.70
4406;DHT22;2216;53.806;11.598;2023-02-15T14:13:36;6.00;81.70
4406;DHT22;2216;53.806;11.598;2023-02-15T14:16:36;6.10;81.60
4406;DHT22;2216;53.806;11.598;2023-02-15T14:31:00;6.00;81.40
4406;DHT22;2216;53.806;11.598;2023-02-15T14:33:38;6.00;81.40
4406;DHT22;2216;53.806;11.598;2023-02-15T14:36:07;6.00;81.40
4406;DHT22;2216;53.806;11.598;2023-02-15T14:38:48;5.90;81.30
4406;DHT22;2216;53.806;11.598;2023-02-15T14:41:31;5.90;81.40
4406;DHT22;2216;53.806;11.598;2023-02-15T14:47:22;5.90;81.30
4406;DHT22;2216;53.806;11.598;2023-02-15T14:49:55;5.90;81.30
4406;DHT22;2216;53.806;11.598;2023-02-15T14:52:21;5.80;81.20
4406;DHT22;2216;53.806;11.598;2023-02-15T14:59:53;5.70;81.20
4406;DHT22;2216;53.806;11.598;2023-02-15T15:02:42;5.70;81.10
4406;DHT22;2216;53.806;11.598;2023-02-15T15:05:21;5.70;81.10
4406;DHT22;2216;53.806;11.598;2023-02-15T15:07:55;5.60;81.10
4406;DHT22;2216;53.806;11.598;2023-02-15T15:12:55;5.50;81.10
4406;DHT22;2216;53.806;11.598;2023-02-15T15:17:59;5.50;81.10
4406;DHT22;2216;53.806;11.598;2023-02-15T15:20:51;5.40;81.00
4406;DHT22;2216;53.806;11.598;2023-02-15T15:26:21;5.40;81.00
4406;DHT22;2216;53.806;11.598;2023-02-15T15:28:56;5.40;81.10
4406;DHT22;2216;53.806;11.598;2023-02-15T15:34:15;5.30;81.10
4406;DHT22;2216;53.806;11.598;2023-02-15T15:40:01;5.20;81.00
4406;DHT22;2216;53.806;11.598;2023-02-15T15:42:50;5.20;81.00
4406;DHT22;2216;53.806;11.598;2023-02-15T15:45:52;5.10;80.90
4406;DHT22;2216;53.806;11.598;2023-02-15T15:48:38;5.10;80.90
4406;DHT22;2216;53.806;11.598;2023-02-15T15:51:14;5.10;80.90
4406;DHT22;2216;53.806;11.598;2023-02-15T15:53:47;5.00;81.00
4406;DHT22;2216;53.806;11.598;2023-02-15T15:56:44;5.10;81.10
4406;DHT22;2216;53.806;11.598;2023-02-15T15:59:18;5.00;81.10
4406;DHT22;2216;53.806;11.598;2023-02-15T16:01:48;5.00;81.10
4406;DHT22;2216;53.806;11.598;2023-02-15T16:04:24;5.00;81.10
4406;DHT22;2216;53.806;11.598;2023-02-15T16:07:13;4.90;81.00
4406;DHT22;2216;53.806;11.598;2023-02-15T16:09:39;4.90;81.00
4406;DHT22;2216;53.806;11.598;2023-02-15T16:12:14;4.90;81.70
4406;DHT22;2216;53.806;11.598;2023-02-15T16:14:42;4.90;81.00
4406;DHT22;2216;53.806;11.598;2023-02-15T16:17:22;4.90;81.00
4406;DHT22;2216;53.806;11.598;2023-02-15T16:19:50;4.80;81.00
4406;DHT22;2216;53.806;11.598;2023-02-15T16:22:23;4.80;81.00
4406;DHT22;2216;53.806;11.598;2023-02-15T16:27:50;4.80;81.00
4406;DHT22;2216;53.806;11.598;2023-02-15T16:30:34;4.70;81.00
4406;DHT22;2216;53.806;11.598;2023-02-15T16:33:09;4.70;81.00
4406;DHT22;2216;53.806;11.598;2023-02-15T16:35:39;4.60;80.90
4406;DHT22;2216;53.806;11.598;2023-02-15T16:38:09;4.90;81.10
4406;DHT22;2216;53.806;11.598;2023-02-15T16:41:02;4.70;81.00
4406;DHT22;2216;53.806;11.598;2023-02-15T16:43:29;4.70;81.00
4406;DHT22;2216;53.806;11.598;2023-02-15T16:46:03;4.60;81.00
4406;DHT22;2216;53.806;11.598;2023-02-15T16:48:32;4.60;81.10
4406;DHT22;2216;53.806;11.598;2023-02-15T16:50:59;4.50;81.00
4406;DHT22;2216;53.806;11.598;2023-02-15T16:53:29;4.60;81.10
4406;DHT22;2216;53.806;11.598;2023-02-15T16:56:00;4.60;81.10
4406;DHT22;2216;53.806;11.598;2023-02-15T16:58:37;4.60;81.10
4406;DHT22;2216;53.806;11.598;2023-02-15T17:01:08;4.60;81.10
4406;DHT22;2216;53.806;11.598;2023-02-15T17:03:36;4.60;81.10
4406;DHT22;2216;53.806;11.598;2023-02-15T17:06:02;4.60;81.20
4406;DHT22;2216;53.806;11.598;2023-02-15T17:08:34;4.50;81.10
4406;DHT22;2216;53.806;11.598;2023-02-15T17:11:21;4.50;81.00
4406;DHT22;2216;53.806;11.598;2023-02-15T17:16:54;4.50;81.10
4406;DHT22;2216;53.806;11.598;2023-02-15T17:19:30;4.40;81.00
4406;DHT22;2216;53.806;11.598;2023-02-15T17:22:05;4.50;81.10
4406;DHT22;2216;53.806;11.598;2023-02-15T17:27:14;4.40;81.10
4406;DHT22;2216;53.806;11.598;2023-02-15T17:29:46;4.40;81.00
4406;DHT22;2216;53.806;11.598;2023-02-15T17:32:20;4.40;81.10
4406;DHT22;2216;53.806;11.598;2023-02-15T17:40:05;4.30;81.10
4406;DHT22;2216;53.806;11.598;2023-02-15T17:42:40;4.20;81.00
4406;DHT22;2216;53.806;11.598;2023-02-15T17:45:06;4.30;81.10
4406;DHT22;2216;53.806;11.598;2023-02-15T17:47:32;4.20;81.10
4406;DHT22;2216;53.806;11.598;2023-02-15T17:49:58;4.30;81.10
4406;DHT22;2216;53.806;11.598;2023-02-15T17:52:28;4.20;81.10
4406;DHT22;2216;53.806;11.598;2023-02-15T17:54:54;4.20;81.10
4406;DHT22;2216;53.806;11.598;2023-02-15T17:57:39;4.20;81.20
4406;DHT22;2216;53.806;11.598;2023-02-15T18:00:06;4.20;81.10
4406;DHT22;2216;53.806;11.598;2023-02-15T18:02:51;4.10;81.10
4406;DHT22;2216;53.806;11.598;2023-02-15T18:05:36;4.10;81.10
4406;DHT22;2216;53.806;11.598;2023-02-15T18:08:24;3.90;81.00
4406;DHT22;2216;53.806;11.598;2023-02-15T18:11:10;4.10;81.20
4406;DHT22;2216;53.806;11.598;2023-02-15T18:13:55;4.00;81.20
4406;DHT22;2216;53.806;11.598;2023-02-15T18:16:27;4.00;81.10
4406;DHT22;2216;53.806;11.598;2023-02-15T18:18:56;4.00;81.30
4406;DHT22;2216;53.806;11.598;2023-02-15T18:21:23;3.90;81.20
4406;DHT22;2216;53.806;11.598;2023-02-15T18:23:49;3.90;81.20
4406;DHT22;2216;53.806;11.598;2023-02-15T18:26:19;3.90;81.10
4406;DHT22;2216;53.806;11.598;2023-02-15T18:28:48;3.80;81.30
4406;DHT22;2216;53.806;11.598;2023-02-15T18:31:14;3.80;81.20
4406;DHT22;2216;53.806;11.598;2023-02-15T18:33:53;3.80;81.20
4406;DHT22;2216;53.806;11.598;2023-02-15T18:36:25;3.70;81.10
4406;DHT22;2216;53.806;11.598;2023-02-15T18:38:57;3.90;81.30
4406;DHT22;2216;53.806;11.598;2023-02-15T18:41:23;3.70;81.20
4406;DHT22;2216;53.806;11.598;2023-02-15T18:43:49;3.70;81.20
4406;DHT22;2216;53.806;11.598;2023-02-15T18:46:16;3.70;81.20
4406;DHT22;2216;53.806;11.598;2023-02-15T18:48:42;3.70;81.20
4406;DHT22;2216;53.806;11.598;2023-02-15T18:51:16;3.70;81.20
4406;DHT22;2216;53.806;11.598;2023-02-15T18:53:49;3.70;81.20
4406;DHT22;2216;53.806;11.598;2023-02-15T18:56:18;3.60;81.10
4406;DHT22;2216;53.806;11.598;2023-02-15T18:58:45;3.60;81.20
4406;DHT22;2216;53.806;11.598;2023-02-15T19:01:19;3.60;81.20
4406;DHT22;2216;53.806;11.598;2023-02-15T19:03:49;3.50;81.10
4406;DHT22;2216;53.806;11.598;2023-02-15T19:06:20;3.60;81.20
4406;DHT22;2216;53.806;11.598;2023-02-15T19:08:50;3.50;81.10
4406;DHT22;2216;53.806;11.598;2023-02-15T19:11:21;3.50;81.20